createdAt,value
2019-03-16T00:04:08.976Z,2.60
2019-03-16T00:09:10.861Z,2.10
2019-03-16T00:14:13.114Z,2.70
2019-03-16T00:19:15.097Z,2.63
2019-03-16T00:24:17.312Z,2.80
2019-03-16T00:29:19.272Z,2.90
2019-03-16T00:34:21.804Z,2.53
2019-03-16T00:39:24.279Z,2.57
2019-03-16T00:44:26.789Z,2.30
2019-03-16T00:49:29.039Z,2.50
2019-03-16T00:54:31.464Z,2.77
2019-03-16T00:59:33.460Z,2.80
2019-03-16T01:04:35.383Z,3.43
2019-03-16T01:09:37.205Z,3.00
2019-03-16T01:14:39.790Z,3.17
2019-03-16T01:19:41.731Z,2.30
2019-03-16T01:24:44.139Z,3.50
2019-03-16T01:29:46.200Z,3.47
2019-03-16T01:34:48.365Z,2.60
2019-03-16T01:39:50.274Z,2.70
2019-03-16T01:44:52.589Z,3.23
2019-03-16T01:49:54.549Z,3.10
2019-03-16T01:54:56.494Z,3.87
2019-03-16T01:59:58.490Z,3.33
2019-03-16T02:05:00.473Z,4.33
2019-03-16T02:10:03.064Z,3.13
2019-03-16T02:15:05.083Z,3.27
2019-03-16T02:20:07.876Z,3.07
2019-03-16T02:25:10.664Z,3.20
2019-03-16T02:30:12.971Z,3.37
2019-03-16T02:35:16.078Z,3.13
2019-03-16T02:40:18.033Z,3.17
2019-03-16T02:45:20.976Z,3.03
2019-03-16T02:50:23.550Z,3.43
2019-03-16T02:55:25.837Z,2.70
2019-03-16T03:00:27.779Z,3.53
2019-03-16T03:05:29.732Z,3.30
2019-03-16T03:10:33.469Z,3.33
2019-03-16T03:15:35.341Z,3.17
2019-03-16T03:20:37.589Z,2.83
2019-03-16T03:25:40.243Z,3.93
2019-03-16T03:30:42.468Z,2.60
2019-03-16T03:35:44.434Z,3.40
2019-03-16T03:40:46.380Z,3.03
2019-03-16T03:45:48.576Z,3.23
2019-03-16T03:50:51.109Z,2.97
2019-03-16T03:55:53.041Z,3.23
2019-03-16T04:00:55.093Z,3.13
2019-03-16T04:05:57.097Z,3.13
2019-03-16T04:10:58.910Z,3.17
2019-03-16T04:16:01.020Z,3.47
2019-03-16T04:21:03.215Z,3.13
2019-03-16T04:26:05.988Z,3.47
2019-03-16T04:31:07.946Z,3.47
2019-03-16T04:36:10.112Z,3.23
2019-03-16T04:41:12.508Z,3.23
2019-03-16T04:46:14.324Z,3.40
2019-03-16T04:51:16.159Z,3.60
2019-03-16T04:56:18.557Z,3.43
2019-03-16T05:01:21.072Z,3.17
2019-03-16T05:06:23.009Z,3.30
2019-03-16T05:11:24.973Z,3.23
2019-03-16T05:16:26.898Z,3.00
2019-03-16T05:21:28.808Z,3.90
2019-03-16T05:26:30.664Z,2.93
2019-03-16T05:31:33.526Z,2.90
2019-03-16T05:36:35.424Z,3.40
2019-03-16T05:41:37.595Z,3.00
2019-03-16T05:46:39.698Z,3.53
2019-03-16T05:51:42.132Z,3.63
2019-03-16T05:56:44.275Z,3.90
2019-03-16T06:01:46.505Z,3.20
2019-03-16T06:06:48.827Z,3.73
2019-03-16T06:11:51.596Z,3.43
2019-03-16T06:16:53.841Z,3.73
2019-03-16T06:21:56.709Z,3.33
2019-03-16T06:26:58.780Z,3.53
2019-03-16T06:32:01.289Z,3.57
2019-03-16T06:37:04.309Z,3.43
2019-03-16T06:42:06.269Z,3.20
2019-03-16T06:47:09.511Z,3.70
2019-03-16T06:52:11.761Z,3.30
2019-03-16T06:57:14.359Z,3.80
2019-03-16T07:02:16.470Z,3.27
2019-03-16T07:07:18.590Z,3.70
2019-03-16T07:12:20.509Z,3.77
2019-03-16T07:17:22.545Z,3.00
2019-03-16T07:22:24.413Z,3.67
2019-03-16T07:27:26.728Z,3.43
2019-03-16T07:32:29.955Z,4.10
2019-03-16T07:37:31.836Z,3.77
2019-03-16T07:42:35.148Z,3.30
2019-03-16T07:47:37.105Z,3.33
2019-03-16T07:52:39.436Z,3.70
2019-03-16T07:57:42.432Z,4.00
2019-03-16T08:02:44.551Z,3.90
2019-03-16T08:07:46.458Z,3.77
2019-03-16T08:12:48.586Z,3.57
2019-03-16T08:17:51.180Z,3.83
2019-03-16T08:22:54.156Z,3.80
2019-03-16T08:27:56.872Z,3.70
2019-03-16T08:32:58.984Z,3.47
2019-03-16T08:38:01.065Z,3.60
2019-03-16T08:43:03.428Z,3.90
2019-03-16T08:48:05.506Z,3.60
2019-03-16T08:53:08.695Z,3.33
2019-03-16T08:58:11.595Z,3.93
2019-03-16T09:03:13.521Z,3.63
2019-03-16T09:08:15.779Z,3.40
2019-03-16T09:13:17.964Z,3.73
2019-03-16T09:18:20.063Z,3.97
2019-03-16T09:23:22.305Z,3.93
2019-03-16T09:28:25.123Z,3.37
2019-03-16T09:33:27.022Z,3.43
2019-03-16T09:38:29.499Z,3.00
2019-03-16T09:43:31.554Z,3.40
2019-03-16T09:48:33.525Z,2.87
2019-03-16T09:53:35.335Z,4.03
2019-03-16T09:58:37.420Z,3.00
2019-03-16T10:03:39.752Z,2.97
2019-03-16T10:08:42.176Z,3.57
2019-03-16T10:13:44.434Z,3.83
2019-03-16T10:18:48.126Z,3.60
2019-03-16T10:23:50.075Z,3.13
2019-03-16T10:28:52.165Z,2.70
2019-03-16T10:33:54.253Z,2.67
2019-03-16T10:38:56.729Z,3.47
2019-03-16T10:43:59.915Z,2.80
2019-03-16T10:49:01.733Z,3.23
2019-03-16T10:54:04.622Z,3.00
2019-03-16T10:59:07.831Z,2.60
2019-03-16T11:04:10.452Z,3.03
2019-03-16T11:09:13.033Z,2.90
2019-03-16T11:14:14.865Z,2.90
2019-03-16T11:19:16.776Z,3.23
2019-03-16T11:24:19.992Z,3.17
2019-03-16T11:29:22.472Z,2.63
2019-03-16T11:34:25.968Z,2.13
2019-03-16T11:39:28.480Z,2.10
2019-03-16T11:44:30.873Z,1.73
2019-03-16T11:49:32.817Z,2.17
2019-03-16T11:54:34.913Z,1.87
2019-03-16T11:59:37.121Z,1.97
2019-03-16T12:04:39.904Z,2.10
2019-03-16T12:09:41.791Z,1.97
2019-03-16T12:14:43.849Z,1.60
2019-03-16T12:19:45.826Z,1.63
2019-03-16T12:24:48.095Z,1.90
2019-03-16T12:29:50.569Z,2.17
2019-03-16T12:34:52.717Z,1.80
2019-03-16T12:39:54.906Z,1.87
2019-03-16T12:44:57.702Z,1.93
2019-03-16T12:50:00.174Z,2.00
2019-03-16T12:55:02.624Z,1.60
2019-03-16T13:00:08.060Z,2.20
2019-03-16T13:05:10.309Z,3.27
2019-03-16T13:10:12.403Z,2.40
2019-03-16T13:15:14.779Z,2.20
2019-03-16T13:20:17.297Z,2.77
2019-03-16T13:25:19.299Z,2.37
2019-03-16T13:30:22.149Z,1.97
2019-03-16T13:35:24.872Z,1.93
2019-03-16T13:40:27.961Z,2.70
2019-03-16T13:45:29.951Z,2.70
2019-03-16T13:50:31.872Z,2.97
2019-03-16T13:55:34.110Z,2.50
2019-03-16T14:00:36.434Z,2.53
2019-03-16T14:05:39.940Z,1.40
2019-03-16T14:10:42.113Z,1.70
2019-03-16T14:15:44.033Z,1.53
2019-03-16T14:20:45.995Z,1.50
2019-03-16T14:25:48.063Z,1.70
2019-03-16T14:30:50.759Z,1.87
2019-03-16T14:35:52.992Z,1.80
2019-03-16T14:40:55.232Z,1.90
2019-03-16T14:45:57.803Z,3.50
2019-03-16T14:51:00.573Z,5.10
2019-03-16T14:56:02.528Z,3.50
2019-03-16T15:01:04.645Z,2.40
2019-03-16T15:06:06.649Z,2.40
2019-03-16T15:11:10.113Z,2.20
2019-03-16T15:16:12.078Z,2.50
2019-03-16T15:21:14.559Z,2.70
2019-03-16T15:26:17.457Z,2.57
2019-03-16T15:31:22.466Z,2.40
2019-03-16T15:36:24.032Z,3.00
2019-03-16T15:41:26.174Z,3.00
2019-03-16T15:46:28.372Z,3.50
2019-03-16T15:51:31.003Z,3.10
2019-03-16T15:56:32.840Z,3.50
2019-03-16T16:01:36.616Z,3.70
2019-03-16T16:06:38.827Z,3.47
2019-03-16T16:11:40.750Z,3.40
2019-03-16T16:16:42.749Z,3.13
2019-03-16T16:21:45.129Z,4.20
2019-03-16T16:26:48.064Z,3.70
2019-03-16T16:31:50.750Z,4.30
2019-03-16T16:36:52.799Z,4.50
2019-03-16T16:41:54.755Z,4.77
2019-03-16T16:46:57.297Z,5.37
2019-03-16T16:51:59.991Z,5.80
2019-03-16T16:57:02.169Z,7.13
2019-03-16T17:02:04.121Z,8.27
2019-03-16T17:07:05.907Z,11.33
2019-03-16T17:12:08.222Z,12.90
2019-03-16T17:17:10.176Z,16.03
2019-03-16T17:22:12.393Z,17.17
2019-03-16T17:27:14.673Z,19.80
2019-03-16T17:32:16.446Z,20.50
2019-03-16T17:37:19.572Z,19.00
2019-03-16T17:42:21.920Z,18.30
2019-03-16T17:47:23.792Z,16.57
2019-03-16T17:52:26.063Z,13.07
2019-03-16T17:57:28.424Z,13.97
2019-03-16T18:02:30.544Z,14.60
2019-03-16T18:07:32.457Z,13.80
2019-03-16T18:12:34.956Z,14.43
2019-03-16T18:17:37.420Z,14.87
2019-03-16T18:22:40.210Z,15.00
2019-03-16T18:27:42.236Z,15.00
2019-03-16T18:32:44.099Z,15.93
2019-03-16T18:37:46.168Z,16.27
2019-03-16T18:42:48.951Z,15.83
2019-03-16T18:47:51.498Z,16.73
2019-03-16T18:52:54.039Z,15.87
2019-03-16T18:57:56.870Z,15.47
2019-03-16T19:03:12.085Z,15.83
2019-03-16T19:08:14.009Z,14.53
2019-03-16T19:13:16.326Z,15.63
2019-03-16T19:18:19.218Z,14.70
2019-03-16T19:23:21.732Z,14.77
2019-03-16T19:28:24.655Z,14.60
2019-03-16T19:33:27.295Z,13.80
2019-03-16T19:38:29.694Z,14.23
2019-03-16T19:43:31.652Z,14.13
2019-03-16T19:48:33.451Z,13.43
2019-03-16T19:53:35.367Z,12.87
2019-03-16T19:58:38.945Z,12.43
2019-03-16T20:03:41.437Z,11.00
2019-03-16T20:08:43.381Z,9.93
2019-03-16T20:13:45.485Z,8.80
2019-03-16T20:18:47.579Z,7.37
2019-03-16T20:23:51.635Z,7.40
2019-03-16T20:28:53.522Z,7.37
2019-03-16T20:33:56.261Z,8.30
2019-03-16T20:38:59.127Z,7.67
2019-03-16T20:44:01.400Z,7.80
2019-03-16T20:49:04.144Z,7.73
2019-03-16T20:54:06.073Z,8.00
2019-03-16T20:59:07.931Z,7.50
2019-03-16T21:04:09.786Z,7.90
2019-03-16T21:09:12.225Z,8.33
2019-03-16T21:14:14.376Z,8.47
2019-03-16T21:19:16.151Z,7.53
2019-03-16T21:24:18.641Z,6.60
2019-03-16T21:29:20.925Z,5.90
2019-03-16T21:34:23.414Z,4.80
2019-03-16T21:39:25.707Z,4.30
2019-03-16T21:44:27.669Z,3.73
2019-03-16T21:49:29.671Z,3.77
2019-03-16T21:54:31.552Z,3.53
2019-03-16T21:59:34.036Z,3.30
2019-03-16T22:04:35.995Z,3.60
2019-03-16T22:09:38.598Z,3.53
2019-03-16T22:14:41.103Z,3.10
2019-03-16T22:19:43.148Z,3.10
2019-03-16T22:24:45.477Z,3.07
2019-03-16T22:29:47.379Z,3.00
2019-03-16T22:34:49.320Z,3.10
2019-03-16T22:39:51.264Z,3.13
2019-03-16T22:44:54.310Z,3.07
2019-03-16T22:49:57.109Z,2.80
2019-03-16T22:55:00.454Z,2.67
2019-03-16T23:00:05.541Z,2.80
2019-03-16T23:05:10.384Z,3.00
2019-03-16T23:10:12.697Z,2.90
2019-03-16T23:15:14.906Z,3.03
2019-03-16T23:20:17.287Z,2.47
2019-03-16T23:25:19.229Z,2.80
2019-03-16T23:30:21.587Z,2.90
2019-03-16T23:35:24.635Z,2.60
2019-03-16T23:40:26.634Z,2.90
2019-03-16T23:45:28.800Z,2.90
2019-03-16T23:50:31.172Z,3.10
2019-03-16T23:55:32.996Z,3.20
